createdAt,value
2018-05-23T00:01:53.186Z,66.20
2018-05-23T00:04:20.730Z,66.20
2018-05-23T00:06:48.230Z,66.10
2018-05-23T00:09:16.542Z,66.20
2018-05-23T00:11:44.043Z,66.10
2018-05-23T00:14:11.583Z,66.10
2018-05-23T00:16:39.083Z,66.10
2018-05-23T00:19:07.378Z,66.00
2018-05-23T00:21:34.871Z,66.00
2018-05-23T00:24:02.411Z,66.10
2018-05-23T00:26:30.455Z,66.00
2018-05-23T00:28:57.947Z,66.00
2018-05-23T00:31:25.479Z,66.00
2018-05-23T00:33:53.733Z,66.10
2018-05-23T00:36:21.276Z,66.00
2018-05-23T00:38:48.771Z,66.20
2018-05-23T00:41:17.072Z,66.10
2018-05-23T00:43:44.628Z,66.10
2018-05-23T00:46:12.176Z,66.50
2018-05-23T00:48:39.669Z,66.70
2018-05-23T00:51:07.198Z,66.60
2018-05-23T00:53:34.705Z,66.90
2018-05-23T00:56:02.239Z,67.10
2018-05-23T00:58:29.743Z,67.20
2018-05-23T01:00:58.050Z,67.00
2018-05-23T01:03:25.560Z,67.00
2018-05-23T01:05:53.104Z,67.90
2018-05-23T01:08:20.610Z,68.00
2018-05-23T01:10:48.870Z,67.90
2018-05-23T01:13:17.171Z,68.00
2018-05-23T01:15:44.680Z,67.90
2018-05-23T01:18:12.213Z,67.70
2018-05-23T01:20:39.697Z,68.50
2018-05-23T01:23:07.234Z,67.80
2018-05-23T01:25:34.723Z,67.80
2018-05-23T01:28:02.258Z,67.30
2018-05-23T01:30:29.754Z,67.90
2018-05-23T01:32:58.084Z,68.30
2018-05-23T01:35:25.598Z,68.30
2018-05-23T01:37:53.131Z,68.60
2018-05-23T01:40:20.648Z,69.10
2018-05-23T01:42:48.182Z,68.50
2018-05-23T01:45:15.675Z,68.70
2018-05-23T01:47:43.511Z,68.80
2018-05-23T01:50:11.002Z,68.80
2018-05-23T01:52:38.498Z,68.30
2018-05-23T01:55:06.043Z,68.50
2018-05-23T01:57:33.547Z,68.30
2018-05-23T02:00:01.108Z,68.90
2018-05-23T02:02:28.607Z,69.30
2018-05-23T02:04:56.922Z,69.20
2018-05-23T02:07:24.433Z,69.10
2018-05-23T02:09:51.988Z,69.00
2018-05-23T02:12:19.475Z,70.00
2018-05-23T02:14:47.011Z,69.00
2018-05-23T02:17:14.514Z,69.70
2018-05-23T02:19:42.818Z,69.80
2018-05-23T02:22:10.323Z,69.70
2018-05-23T02:24:37.870Z,69.20
2018-05-23T02:27:05.371Z,69.70
2018-05-23T02:29:33.711Z,69.70
2018-05-23T02:32:01.203Z,69.60
2018-05-23T02:34:28.746Z,69.70
2018-05-23T02:36:56.272Z,69.70
2018-05-23T02:39:23.806Z,69.10
2018-05-23T02:41:51.306Z,69.70
2018-05-23T02:44:19.638Z,69.70
2018-05-23T02:46:47.175Z,69.80
2018-05-23T02:49:15.430Z,69.80
2018-05-23T02:51:42.987Z,69.70
2018-05-23T02:54:10.488Z,69.70
2018-05-23T02:56:38.030Z,70.30
2018-05-23T02:59:05.532Z,69.70
2018-05-23T03:01:33.100Z,69.70
2018-05-23T03:04:00.595Z,69.70
2018-05-23T03:06:28.126Z,69.70
2018-05-23T03:08:55.615Z,69.80
2018-05-23T03:11:23.932Z,69.70
2018-05-23T03:13:51.435Z,69.70
2018-05-23T03:16:18.978Z,69.80
2018-05-23T03:18:46.472Z,69.80
2018-05-23T03:21:14.766Z,69.80
2018-05-23T03:23:43.035Z,69.80
2018-05-23T03:26:11.340Z,69.90
2018-05-23T03:28:38.836Z,69.90
2018-05-23T03:31:06.371Z,69.90
2018-05-23T03:33:33.863Z,69.90
2018-05-23T03:36:01.400Z,69.90
2018-05-23T03:38:28.896Z,70.00
2018-05-23T03:40:56.438Z,69.80
2018-05-23T03:43:23.940Z,68.90
2018-05-23T03:45:51.445Z,69.40
2018-05-23T03:48:18.991Z,70.10
2018-05-23T03:50:46.493Z,68.90
2018-05-23T03:53:14.806Z,68.30
2018-05-23T03:55:42.297Z,68.20
2018-05-23T03:58:09.831Z,69.10
2018-05-23T04:00:48.975Z,68.80
2018-05-23T04:03:28.418Z,68.30
2018-05-23T04:06:07.654Z,68.90
2018-05-23T04:08:35.186Z,68.50
2018-05-23T04:11:02.678Z,67.90
2018-05-23T04:13:30.214Z,67.90
2018-05-23T04:15:57.706Z,67.40
2018-05-23T04:18:25.254Z,68.80
2018-05-23T04:20:52.744Z,67.60
2018-05-23T04:23:20.274Z,67.80
2018-05-23T04:25:47.767Z,67.80
2018-05-23T04:28:16.075Z,67.50
2018-05-23T04:30:43.580Z,67.40
2018-05-23T04:33:11.120Z,67.30
2018-05-23T04:35:38.677Z,66.70
2018-05-23T04:38:06.215Z,67.30
2018-05-23T04:40:33.720Z,67.00
2018-05-23T04:43:02.034Z,67.20
2018-05-23T04:45:29.538Z,67.10
2018-05-23T04:47:57.095Z,67.20
2018-05-23T04:50:24.590Z,67.60
2018-05-23T04:52:52.107Z,67.60
2018-05-23T04:55:19.646Z,67.40
2018-05-23T04:57:47.146Z,67.50
2018-05-23T05:00:15.447Z,67.50
2018-05-23T05:02:42.974Z,67.50
2018-05-23T05:05:10.541Z,67.50
2018-05-23T05:07:38.042Z,68.90
2018-05-23T05:10:05.625Z,67.90
2018-05-23T05:12:33.118Z,68.20
2018-05-23T05:15:01.428Z,68.20
2018-05-23T05:17:29.610Z,68.10
2018-05-23T05:19:57.150Z,68.20
2018-05-23T05:22:25.423Z,68.40
2018-05-23T05:24:53.802Z,68.00
2018-05-23T05:27:21.239Z,68.00
2018-05-23T05:29:48.734Z,67.80
2018-05-23T05:32:16.292Z,67.30
2018-05-23T05:34:43.835Z,67.10
2018-05-23T05:37:12.099Z,66.10
2018-05-23T05:39:40.372Z,65.80
2018-05-23T05:42:08.686Z,65.60
2018-05-23T05:44:36.205Z,65.50
2018-05-23T05:47:03.848Z,65.00
2018-05-23T05:49:32.082Z,64.30
2018-05-23T05:51:59.617Z,64.20
2018-05-23T05:54:27.115Z,63.90
2018-05-23T05:56:54.778Z,63.70
2018-05-23T05:59:22.289Z,63.80
2018-05-23T06:01:50.574Z,63.50
2018-05-23T06:04:18.835Z,63.70
2018-05-23T06:06:47.144Z,63.60
2018-05-23T06:09:14.647Z,63.50
2018-05-23T06:11:43.733Z,63.80
2018-05-23T06:14:12.116Z,63.80
2018-05-23T06:16:39.649Z,63.80
2018-05-23T06:19:07.143Z,63.60
2018-05-23T06:21:34.706Z,63.00
2018-05-23T06:24:02.214Z,63.00
2018-05-23T06:26:29.755Z,63.00
2018-05-23T06:28:57.291Z,62.90
2018-05-23T06:31:24.800Z,62.90
2018-05-23T06:33:52.364Z,62.70
2018-05-23T06:36:19.871Z,62.70
2018-05-23T06:38:47.410Z,62.80
2018-05-23T06:41:14.922Z,62.60
2018-05-23T06:43:42.577Z,62.70
2018-05-23T06:46:09.986Z,62.30
2018-05-23T06:48:37.542Z,62.30
2018-05-23T06:51:05.053Z,62.00
2018-05-23T06:53:32.600Z,62.00
2018-05-23T06:56:00.868Z,61.80
2018-05-23T06:58:28.426Z,61.80
2018-05-23T07:00:56.761Z,61.80
2018-05-23T07:03:24.310Z,61.80
2018-05-23T07:05:51.837Z,61.60
2018-05-23T07:08:19.417Z,61.60
2018-05-23T07:10:47.090Z,62.00
2018-05-23T07:13:14.640Z,62.60
2018-05-23T07:15:42.183Z,62.80
2018-05-23T07:18:09.749Z,62.30
2018-05-23T07:20:38.122Z,62.40
2018-05-23T07:23:05.637Z,62.20
2018-05-23T07:25:33.211Z,62.80
2018-05-23T07:28:01.494Z,63.00
2018-05-23T07:30:29.042Z,62.80
2018-05-23T07:32:56.601Z,62.10
2018-05-23T07:35:24.180Z,61.20
2018-05-23T07:37:52.458Z,59.60
2018-05-23T07:40:20.797Z,59.00
2018-05-23T07:42:48.373Z,59.00
2018-05-23T07:45:15.931Z,58.60
2018-05-23T07:47:43.463Z,58.80
2018-05-23T07:50:11.055Z,58.50
2018-05-23T07:52:38.558Z,58.10
2018-05-23T07:55:06.072Z,57.20
2018-05-23T07:57:33.650Z,57.30
2018-05-23T08:00:01.152Z,57.60
2018-05-23T08:02:28.684Z,57.00
2018-05-23T08:04:56.182Z,56.40
2018-05-23T08:07:23.718Z,55.90
2018-05-23T08:09:52.048Z,55.90
2018-05-23T08:12:20.379Z,55.50
2018-05-23T08:14:47.879Z,55.50
2018-05-23T08:17:15.504Z,56.50
2018-05-23T08:19:43.011Z,56.40
2018-05-23T08:22:10.562Z,55.90
2018-05-23T08:24:38.833Z,54.50
2018-05-23T08:27:07.442Z,55.10
2018-05-23T08:29:34.957Z,55.00
2018-05-23T08:32:02.462Z,54.60
2018-05-23T08:34:30.038Z,54.90
2018-05-23T08:36:57.543Z,54.40
2018-05-23T08:39:25.075Z,54.50
2018-05-23T08:41:52.602Z,54.00
2018-05-23T08:44:20.136Z,53.60
2018-05-23T08:46:48.488Z,53.80
2018-05-23T08:49:16.030Z,53.80
2018-05-23T08:51:43.526Z,53.30
2018-05-23T08:54:11.076Z,53.50
2018-05-23T08:56:38.575Z,53.30
2018-05-23T08:59:07.477Z,53.30
2018-05-23T09:01:34.995Z,52.90
2018-05-23T09:04:03.329Z,54.20
2018-05-23T09:06:30.857Z,53.60
2018-05-23T09:08:58.423Z,54.30
2018-05-23T09:11:25.923Z,53.40
2018-05-23T09:13:53.433Z,53.60
2018-05-23T09:16:20.969Z,54.10
2018-05-23T09:18:49.253Z,55.10
2018-05-23T09:21:17.699Z,55.80
2018-05-23T09:23:45.235Z,55.60
2018-05-23T09:26:12.988Z,55.10
2018-05-23T09:28:40.567Z,55.00
2018-05-23T09:31:08.094Z,55.70
2018-05-23T09:33:35.645Z,54.90
2018-05-23T09:36:03.146Z,54.00
2018-05-23T09:38:30.710Z,53.30
2018-05-23T09:40:58.259Z,52.00
2018-05-23T09:43:25.782Z,51.30
2018-05-23T09:45:53.340Z,51.10
2018-05-23T09:48:20.947Z,51.00
2018-05-23T09:50:49.246Z,52.20
2018-05-23T09:53:17.137Z,51.30
2018-05-23T09:55:45.409Z,51.30
2018-05-23T09:58:13.723Z,51.00
2018-05-23T10:00:41.219Z,50.90
2018-05-23T10:03:08.753Z,51.10
2018-05-23T10:05:36.259Z,51.10
2018-05-23T10:08:04.563Z,51.00
2018-05-23T10:10:32.118Z,50.90
2018-05-23T10:12:59.663Z,51.00
2018-05-23T10:15:27.922Z,51.40
2018-05-23T10:17:56.254Z,50.30
2018-05-23T10:20:23.788Z,49.80
2018-05-23T10:22:51.369Z,50.10
2018-05-23T10:25:18.940Z,49.40
2018-05-23T10:27:46.407Z,49.50
2018-05-23T10:30:13.969Z,49.60
2018-05-23T10:32:41.462Z,49.50
2018-05-23T10:35:08.996Z,48.90
2018-05-23T10:37:36.509Z,49.30
2018-05-23T10:40:04.032Z,50.00
2018-05-23T10:42:31.738Z,50.00
2018-05-23T10:44:59.322Z,49.90
2018-05-23T10:47:26.826Z,49.80
2018-05-23T10:49:54.362Z,50.40
2018-05-23T10:52:21.854Z,51.50
2018-05-23T10:54:49.402Z,51.40
2018-05-23T10:57:16.919Z,51.60
2018-05-23T10:59:44.458Z,51.60
2018-05-23T11:02:11.964Z,50.90
2018-05-23T11:04:39.495Z,50.90
2018-05-23T11:07:07.008Z,51.90
2018-05-23T11:09:35.126Z,50.70
2018-05-23T11:12:02.620Z,49.90
2018-05-23T11:14:30.947Z,49.60
2018-05-23T11:16:58.441Z,49.60
2018-05-23T11:19:25.982Z,49.30
2018-05-23T11:21:53.472Z,51.10
2018-05-23T11:24:21.006Z,51.20
2018-05-23T11:26:48.574Z,51.00
2018-05-23T11:29:16.119Z,50.90
2018-05-23T11:31:43.656Z,50.90
2018-05-23T11:34:11.155Z,50.70
2018-05-23T11:36:38.746Z,50.50
2018-05-23T11:39:06.267Z,50.60
2018-05-23T11:41:33.775Z,51.70
2018-05-23T11:44:01.438Z,51.70
2018-05-23T11:46:28.903Z,51.90
2018-05-23T11:48:56.471Z,52.00
2018-05-23T11:51:23.996Z,52.30
2018-05-23T11:53:51.596Z,52.40
2018-05-23T11:56:19.097Z,52.70
2018-05-23T11:58:47.432Z,53.20
2018-05-23T12:01:14.934Z,53.20
2018-05-23T12:03:42.465Z,53.60
2018-05-23T12:06:09.966Z,53.30
2018-05-23T12:08:38.345Z,53.80
2018-05-23T12:11:06.473Z,53.70
2018-05-23T12:13:34.045Z,53.80
2018-05-23T12:16:01.547Z,54.10
2018-05-23T12:18:29.123Z,54.50
2018-05-23T12:20:56.638Z,54.70
2018-05-23T12:23:24.171Z,55.20
2018-05-23T12:25:51.735Z,55.20
2018-05-23T12:28:19.246Z,55.40
2018-05-23T12:30:46.778Z,55.70
2018-05-23T12:33:15.063Z,56.50
2018-05-23T12:35:42.714Z,55.80
2018-05-23T12:38:10.455Z,55.80
2018-05-23T12:40:38.015Z,55.80
2018-05-23T12:43:05.515Z,55.70
2018-05-23T12:45:33.063Z,55.80
2018-05-23T12:48:00.611Z,56.60
2018-05-23T12:50:28.923Z,57.40
2018-05-23T12:52:56.424Z,57.40
2018-05-23T12:55:23.985Z,57.30
2018-05-23T12:57:51.517Z,57.50
2018-05-23T13:00:19.086Z,57.60
2018-05-23T13:02:48.078Z,58.00
2018-05-23T13:05:16.520Z,57.60
2018-05-23T13:07:44.877Z,57.60
2018-05-23T13:10:13.184Z,57.90
2018-05-23T13:12:40.786Z,57.80
2018-05-23T13:15:08.337Z,58.10
2018-05-23T13:17:35.876Z,58.20
2018-05-23T13:20:03.392Z,58.30
2018-05-23T13:22:30.931Z,58.10
2018-05-23T13:24:58.455Z,58.30
2018-05-23T13:27:26.009Z,58.50
2018-05-23T13:29:53.509Z,58.50
2018-05-23T13:32:21.057Z,58.40
2018-05-23T13:34:48.562Z,58.80
2018-05-23T13:37:16.095Z,58.50
2018-05-23T13:39:44.368Z,57.80
2018-05-23T13:42:11.979Z,57.60
2018-05-23T13:44:39.490Z,57.80
2018-05-23T13:47:07.766Z,57.30
2018-05-23T13:49:35.335Z,57.30
2018-05-23T13:52:02.836Z,57.00
2018-05-23T13:54:30.366Z,56.90
2018-05-23T13:56:58.628Z,57.70
2018-05-23T13:59:26.940Z,57.70
2018-05-23T14:01:54.457Z,57.70
2018-05-23T14:04:21.970Z,57.70
2018-05-23T14:06:49.491Z,58.20
2018-05-23T14:09:17.924Z,58.50
2018-05-23T14:11:45.426Z,58.40
2018-05-23T14:14:13.782Z,58.30
2018-05-23T14:16:41.300Z,58.30
2018-05-23T14:19:09.720Z,58.60
2018-05-23T14:21:37.729Z,58.20
2018-05-23T14:24:05.292Z,58.30
2018-05-23T14:26:32.839Z,58.10
2018-05-23T14:29:01.191Z,58.50
2018-05-23T14:31:29.631Z,58.40
2018-05-23T14:33:57.180Z,58.40
2018-05-23T14:36:24.721Z,58.60
2018-05-23T14:38:53.133Z,58.40
2018-05-23T14:41:20.652Z,58.20
2018-05-23T14:43:49.023Z,58.00
2018-05-23T14:46:17.650Z,58.00
2018-05-23T14:48:45.182Z,58.20
2018-05-23T14:51:12.681Z,57.70
2018-05-23T14:53:40.255Z,58.00
2018-05-23T14:56:07.815Z,58.30
2018-05-23T14:58:37.917Z,58.20
2018-05-23T15:01:05.473Z,57.80
2018-05-23T15:03:33.016Z,58.90
2018-05-23T15:06:00.513Z,58.40
2018-05-23T15:08:28.120Z,58.70
2018-05-23T15:10:55.619Z,57.80
2018-05-23T15:13:23.108Z,57.80
2018-05-23T15:15:50.682Z,57.40
2018-05-23T15:18:18.172Z,57.00
2018-05-23T15:20:45.775Z,57.50
2018-05-23T15:23:13.282Z,57.80
2018-05-23T15:25:40.773Z,58.30
2018-05-23T15:28:08.316Z,58.30
2018-05-23T15:30:35.810Z,57.80
2018-05-23T15:33:03.346Z,57.60
2018-05-23T15:35:30.846Z,58.00
2018-05-23T15:37:59.148Z,57.80
2018-05-23T15:40:26.690Z,57.80
2018-05-23T15:42:55.018Z,57.50
2018-05-23T15:45:23.296Z,57.10
2018-05-23T15:47:50.830Z,57.10
2018-05-23T15:50:18.340Z,57.40
2018-05-23T15:52:45.913Z,57.60
2018-05-23T15:55:13.405Z,57.30
2018-05-23T15:57:41.213Z,56.40
2018-05-23T16:00:08.710Z,56.70
2018-05-23T16:02:37.023Z,57.20
2018-05-23T16:05:04.525Z,57.30
2018-05-23T16:07:32.071Z,57.10
2018-05-23T16:09:59.613Z,57.30
2018-05-23T16:12:27.129Z,57.30
2018-05-23T16:14:54.696Z,57.40
2018-05-23T16:17:22.218Z,56.60
2018-05-23T16:19:49.982Z,57.20
2018-05-23T16:22:17.440Z,57.00
2018-05-23T16:24:44.958Z,56.60
2018-05-23T16:27:12.502Z,56.70
2018-05-23T16:29:40.095Z,57.50
2018-05-23T16:32:07.574Z,56.60
2018-05-23T16:34:35.919Z,56.10
2018-05-23T16:37:03.423Z,55.80
2018-05-23T16:39:31.736Z,55.40
2018-05-23T16:41:59.224Z,55.40
2018-05-23T16:44:26.833Z,55.70
2018-05-23T16:46:54.274Z,55.10
2018-05-23T16:49:22.587Z,55.00
2018-05-23T16:51:50.078Z,55.10
2018-05-23T16:54:17.619Z,55.30
2018-05-23T16:56:45.135Z,54.80
2018-05-23T16:59:13.404Z,54.60
2018-05-23T17:01:41.714Z,54.70
2018-05-23T17:04:09.201Z,54.60
2018-05-23T17:06:36.733Z,54.80
2018-05-23T17:09:04.232Z,54.50
2018-05-23T17:11:31.770Z,54.70
2018-05-23T17:13:59.273Z,54.70
2018-05-23T17:16:26.827Z,55.00
2018-05-23T17:18:55.121Z,55.30
2018-05-23T17:21:23.449Z,55.50
2018-05-23T17:23:50.977Z,55.30
2018-05-23T17:26:18.619Z,55.40
2018-05-23T17:28:46.131Z,55.80
2018-05-23T17:31:13.674Z,55.60
2018-05-23T17:33:41.165Z,55.30
2018-05-23T17:36:08.713Z,55.60
2018-05-23T17:38:36.234Z,55.70
2018-05-23T17:41:03.732Z,55.40
2018-05-23T17:43:31.291Z,55.40
2018-05-23T17:45:58.806Z,55.70
2018-05-23T17:48:26.356Z,55.00
2018-05-23T17:50:53.859Z,55.30
2018-05-23T17:53:21.413Z,55.60
2018-05-23T17:55:49.561Z,55.60
2018-05-23T17:58:17.100Z,55.60
2018-05-23T18:00:44.621Z,55.60
2018-05-23T18:03:12.146Z,55.60
2018-05-23T18:05:39.651Z,55.60
2018-05-23T18:08:07.276Z,55.40
2018-05-23T18:10:44.493Z,55.40
2018-05-23T18:13:12.041Z,55.40
2018-05-23T18:15:40.161Z,55.30
2018-05-23T18:18:07.694Z,55.30
2018-05-23T18:20:35.290Z,55.20
2018-05-23T18:23:02.776Z,55.60
2018-05-23T18:25:30.275Z,55.50
2018-05-23T18:27:57.915Z,55.70
2018-05-23T18:30:25.390Z,56.40
2018-05-23T18:32:52.944Z,56.90
2018-05-23T18:35:21.213Z,57.30
2018-05-23T18:37:48.715Z,57.20
2018-05-23T18:40:16.283Z,57.60
2018-05-23T18:42:43.811Z,57.80
2018-05-23T18:45:12.134Z,58.20
2018-05-23T18:47:39.656Z,58.20
2018-05-23T18:50:08.067Z,58.60
2018-05-23T18:52:35.615Z,58.30
2018-05-23T18:55:03.163Z,58.50
2018-05-23T18:57:30.664Z,58.50
2018-05-23T18:59:58.197Z,58.90
2018-05-23T19:02:25.688Z,59.10
2018-05-23T19:04:53.302Z,59.00
2018-05-23T19:07:21.748Z,59.00
2018-05-23T19:09:49.289Z,59.20
2018-05-23T19:12:16.791Z,59.40
2018-05-23T19:14:44.333Z,59.50
2018-05-23T19:17:12.625Z,60.30
2018-05-23T19:19:40.262Z,60.20
2018-05-23T19:22:07.706Z,61.30
2018-05-23T19:24:36.742Z,60.60
2018-05-23T19:27:04.259Z,60.60
2018-05-23T19:29:31.874Z,60.60
2018-05-23T19:31:59.379Z,60.50
2018-05-23T19:34:26.922Z,60.50
2018-05-23T19:36:54.436Z,60.50
2018-05-23T19:39:21.995Z,60.60
2018-05-23T19:41:49.537Z,60.50
2018-05-23T19:44:17.869Z,61.00
2018-05-23T19:46:45.377Z,60.90
2018-05-23T19:49:12.871Z,61.10
2018-05-23T19:51:40.415Z,61.50
2018-05-23T19:54:07.911Z,61.40
2018-05-23T19:56:35.494Z,61.80
2018-05-23T19:59:03.018Z,61.70
2018-05-23T20:01:30.578Z,61.60
2018-05-23T20:03:58.076Z,61.80
2018-05-23T20:06:25.606Z,62.50
2018-05-23T20:08:53.110Z,62.20
2018-05-23T20:11:20.668Z,62.40
2018-05-23T20:13:48.943Z,63.00
2018-05-23T20:16:17.250Z,63.20
2018-05-23T20:18:44.791Z,63.10
2018-05-23T20:21:12.355Z,63.40
2018-05-23T20:23:39.876Z,63.60
2018-05-23T20:26:07.429Z,63.90
2018-05-23T20:28:34.927Z,63.60
2018-05-23T20:31:02.480Z,63.30
2018-05-23T20:33:29.975Z,62.70
2018-05-23T20:35:57.538Z,63.20
2018-05-23T20:38:25.096Z,63.30
2018-05-23T20:40:52.607Z,63.20
2018-05-23T20:43:20.926Z,63.00
2018-05-23T20:45:48.443Z,62.90
2018-05-23T20:48:16.049Z,63.10
2018-05-23T20:50:44.204Z,62.60
2018-05-23T20:53:11.761Z,63.50
2018-05-23T20:55:39.273Z,63.00
2018-05-23T20:58:06.812Z,62.40
2018-05-23T21:00:34.307Z,62.80
2018-05-23T21:03:02.619Z,63.00
2018-05-23T21:05:30.218Z,63.00
2018-05-23T21:07:57.714Z,63.20
2018-05-23T21:10:26.001Z,64.00
2018-05-23T21:12:53.540Z,64.00
2018-05-23T21:15:21.834Z,63.50
2018-05-23T21:17:49.394Z,63.40
2018-05-23T21:20:16.911Z,63.40
2018-05-23T21:22:44.514Z,63.70
2018-05-23T21:25:12.027Z,63.90
2018-05-23T21:27:39.621Z,63.90
2018-05-23T21:30:08.023Z,63.90
2018-05-23T21:32:35.538Z,63.90
2018-05-23T21:35:03.087Z,63.80
2018-05-23T21:37:30.652Z,63.80
2018-05-23T21:39:58.194Z,63.80
2018-05-23T21:42:25.696Z,63.90
2018-05-23T21:44:53.242Z,64.10
2018-05-23T21:47:21.556Z,63.90
2018-05-23T21:49:49.067Z,64.30
2018-05-23T21:52:17.341Z,64.50
2018-05-23T21:54:44.882Z,64.50
2018-05-23T21:57:13.305Z,64.70
2018-05-23T21:59:40.890Z,64.50
2018-05-23T22:02:08.406Z,64.90
2018-05-23T22:04:35.962Z,64.20
2018-05-23T22:07:03.463Z,64.40
2018-05-23T22:09:31.040Z,64.40
2018-05-23T22:11:58.575Z,64.70
2018-05-23T22:14:26.186Z,64.50
2018-05-23T22:16:53.755Z,64.60
2018-05-23T22:19:21.327Z,64.80
2018-05-23T22:21:48.818Z,64.80
2018-05-23T22:24:16.404Z,64.70
2018-05-23T22:26:43.975Z,64.80
2018-05-23T22:29:11.523Z,65.00
2018-05-23T22:31:39.028Z,65.30
2018-05-23T22:34:07.384Z,65.20
2018-05-23T22:36:34.913Z,65.00
2018-05-23T22:39:02.584Z,65.30
2018-05-23T22:41:30.135Z,65.30
2018-05-23T22:43:57.653Z,65.60
2018-05-23T22:46:25.196Z,65.90
2018-05-23T22:48:52.709Z,65.90
2018-05-23T22:51:20.256Z,66.30
2018-05-23T22:53:48.191Z,66.00
2018-05-23T22:56:16.794Z,66.40
2018-05-23T22:58:44.335Z,66.30
2018-05-23T23:01:13.726Z,66.20
2018-05-23T23:03:41.232Z,66.20
2018-05-23T23:06:08.775Z,66.30
2018-05-23T23:08:36.281Z,66.30
2018-05-23T23:11:03.839Z,66.20
2018-05-23T23:13:32.360Z,66.60
2018-05-23T23:16:00.626Z,66.20
2018-05-23T23:18:28.940Z,66.00
2018-05-23T23:20:56.473Z,65.90
2018-05-23T23:23:23.975Z,65.70
2018-05-23T23:25:51.549Z,65.80
2018-05-23T23:28:19.053Z,65.80
2018-05-23T23:30:46.569Z,65.70
2018-05-23T23:33:14.105Z,65.60
2018-05-23T23:35:41.599Z,65.60
2018-05-23T23:38:09.133Z,65.30
2018-05-23T23:40:36.629Z,65.30
2018-05-23T23:43:04.184Z,65.20
2018-05-23T23:45:31.679Z,65.10
2018-05-23T23:47:59.224Z,65.10
2018-05-23T23:50:27.505Z,65.10
2018-05-23T23:52:55.066Z,65.10
2018-05-23T23:55:22.558Z,64.90
2018-05-23T23:57:50.103Z,64.50
